createdAt,value
2023-03-01T00:04:31.935Z,21.65
2023-03-01T00:09:28.889Z,21.23
2023-03-01T00:14:26.197Z,18.85
2023-03-01T00:19:23.950Z,20.95
2023-03-01T00:24:20.811Z,19.08
2023-03-01T00:29:17.837Z,26.13
2023-03-01T00:34:17.828Z,23.63
2023-03-01T00:39:19.031Z,24.60
2023-03-01T00:44:18.196Z,28.50
2023-03-01T00:49:15.662Z,23.73
2023-03-01T00:54:24.657Z,20.52
2023-03-01T00:59:25.981Z,25.52
2023-03-01T01:04:23.124Z,25.42
2023-03-01T01:09:20.100Z,29.95
2023-03-01T01:14:19.322Z,23.13
2023-03-01T01:19:21.792Z,29.70
2023-03-01T01:24:19.573Z,22.75
2023-03-01T01:29:19.052Z,3.28
2023-03-01T01:34:18.116Z,2.03
2023-03-01T01:39:15.024Z,2.25
2023-03-01T01:44:20.884Z,5.40
2023-03-01T01:54:23.290Z,3.33
2023-03-01T01:59:24.769Z,3.65
2023-03-01T02:04:22.449Z,3.03
2023-03-01T02:09:22.794Z,1.77
2023-03-01T02:14:20.472Z,3.97
2023-03-01T02:19:29.226Z,2.33
2023-03-01T02:24:33.067Z,4.38
2023-03-01T02:29:30.876Z,3.72
2023-03-01T02:34:29.613Z,2.88
2023-03-01T02:39:31.078Z,3.40
2023-03-01T02:44:30.712Z,2.85
2023-03-01T02:49:29.424Z,2.20
2023-03-01T02:54:32.358Z,3.05
2023-03-01T02:59:35.591Z,2.90
2023-03-01T03:04:32.648Z,2.00
2023-03-01T03:09:29.665Z,5.20
2023-03-01T03:14:27.116Z,3.38
2023-03-01T03:19:25.003Z,1.77
2023-03-01T03:24:21.872Z,4.43
2023-03-01T03:29:18.784Z,2.50
2023-03-01T03:34:18.354Z,2.88
2023-03-01T03:39:16.012Z,2.58
2023-03-01T03:44:13.137Z,5.45
2023-03-01T03:49:10.003Z,3.70
2023-03-01T03:54:06.822Z,3.40
2023-03-01T03:59:06.291Z,3.42
2023-03-01T04:04:04.524Z,1.67
2023-03-01T04:09:02.887Z,2.38
2023-03-01T04:14:00.471Z,4.07
2023-03-01T04:18:59.988Z,3.72
2023-03-01T04:23:57.224Z,4.75
2023-03-01T04:28:54.115Z,3.67
2023-03-01T04:33:52.888Z,3.75
2023-03-01T04:38:51.188Z,4.13
2023-03-01T04:43:49.224Z,3.33
2023-03-01T04:48:47.656Z,3.63
2023-03-01T04:53:45.048Z,4.38
2023-03-01T04:58:42.979Z,3.38
2023-03-01T05:03:43.856Z,2.90
2023-03-01T05:08:51.667Z,4.43
2023-03-01T05:13:55.402Z,3.72
2023-03-01T05:18:52.506Z,4.07
2023-03-01T05:23:49.789Z,4.75
2023-03-01T05:28:46.895Z,2.72
2023-03-01T05:33:44.516Z,5.60
2023-03-01T05:38:41.583Z,3.70
2023-03-01T05:43:39.428Z,3.28
2023-03-01T05:48:36.542Z,3.33
2023-03-01T05:53:34.023Z,3.30
2023-03-01T05:58:31.156Z,2.03
2023-03-01T06:03:28.009Z,3.03
2023-03-01T06:08:27.140Z,3.30
2023-03-01T06:13:25.209Z,5.18
2023-03-01T06:18:21.940Z,3.75
2023-03-01T06:23:18.689Z,4.97
2023-03-01T06:28:15.525Z,2.65
2023-03-01T06:33:13.545Z,3.22
2023-03-01T06:38:10.613Z,3.72
2023-03-01T06:43:08.261Z,4.97
2023-03-01T06:48:06.435Z,5.68
2023-03-01T06:53:04.484Z,3.03
2023-03-01T06:58:02.995Z,2.65
2023-03-01T07:03:02.162Z,5.00
2023-03-01T07:07:59.249Z,2.97
2023-03-01T07:12:58.114Z,4.15
2023-03-01T07:17:55.240Z,3.30
2023-03-01T07:22:55.505Z,4.63
2023-03-01T07:27:53.079Z,2.75
2023-03-01T07:32:50.731Z,3.88
2023-03-01T07:37:47.636Z,1.98
2023-03-01T07:42:44.543Z,3.15
2023-03-01T07:47:41.395Z,3.13
2023-03-01T07:52:39.023Z,2.42
2023-03-01T07:57:36.603Z,2.25
2023-03-01T08:02:33.439Z,2.85
2023-03-01T08:07:30.449Z,3.63
2023-03-01T08:12:28.649Z,5.20
2023-03-01T08:17:25.648Z,3.30
2023-03-01T08:22:22.566Z,4.15
2023-03-01T08:27:19.353Z,2.85
2023-03-01T08:32:16.998Z,3.67
2023-03-01T08:37:13.890Z,3.05
2023-03-01T08:42:10.824Z,2.33
2023-03-01T08:47:07.649Z,4.35
2023-03-01T08:52:05.096Z,2.70
2023-03-01T08:57:03.049Z,3.53
2023-03-01T09:01:59.965Z,3.67
2023-03-01T09:06:56.924Z,4.18
2023-03-01T09:11:54.553Z,4.80
2023-03-01T09:16:51.513Z,4.53
2023-03-01T09:21:53.185Z,3.75
2023-03-01T09:26:51.671Z,2.45
2023-03-01T09:31:49.389Z,4.10
2023-03-01T09:36:48.973Z,4.50
2023-03-01T09:41:50.356Z,3.90
2023-03-01T09:46:47.956Z,4.75
2023-03-01T09:51:55.555Z,3.08
2023-03-01T09:57:07.113Z,3.33
2023-03-01T10:02:22.450Z,3.13
2023-03-01T10:07:32.904Z,3.00
2023-03-01T10:12:37.644Z,3.60
2023-03-01T10:17:38.848Z,4.05
2023-03-01T10:22:37.925Z,3.95
2023-03-01T10:27:44.172Z,2.85
2023-03-01T10:32:41.391Z,2.60
2023-03-01T10:38:05.369Z,13.65
2023-03-01T10:43:04.929Z,27.17
2023-03-01T10:48:14.479Z,19.10
2023-03-01T10:53:31.200Z,19.23
2023-03-01T10:58:29.127Z,21.80
2023-03-01T11:03:33.258Z,17.92
2023-03-01T11:08:37.471Z,17.25
2023-03-01T11:13:37.494Z,20.90
2023-03-01T11:18:47.004Z,18.25
2023-03-01T11:24:03.440Z,20.48
2023-03-01T11:29:09.496Z,23.30
2023-03-01T11:34:14.325Z,22.48
2023-03-01T11:39:21.648Z,22.40
2023-03-01T11:44:27.192Z,17.83
2023-03-01T11:49:57.961Z,19.60
2023-03-01T11:55:25.595Z,16.90
2023-03-01T12:00:37.491Z,19.08
2023-03-01T12:06:03.816Z,14.98
2023-03-01T12:11:11.760Z,16.15
2023-03-01T12:16:38.721Z,22.38
2023-03-01T12:21:48.223Z,24.20
2023-03-01T12:26:55.838Z,23.75
2023-03-01T12:32:19.858Z,23.25
2023-03-01T12:37:26.328Z,22.70
2023-03-01T12:42:32.718Z,23.75
2023-03-01T12:47:45.954Z,22.27
2023-03-01T12:52:48.436Z,23.27
2023-03-01T12:57:53.331Z,24.27
2023-03-01T13:02:57.174Z,19.80
2023-03-01T13:08:00.488Z,18.90
2023-03-01T13:13:14.480Z,14.80
2023-03-01T13:18:41.391Z,13.55
2023-03-01T13:23:39.767Z,13.80
2023-03-01T13:28:47.557Z,18.65
2023-03-01T13:33:47.946Z,20.05
2023-03-01T13:38:49.304Z,21.48
2023-03-01T13:43:48.879Z,19.65
2023-03-01T13:48:48.839Z,18.33
2023-03-01T13:53:48.635Z,20.02
2023-03-01T13:58:55.351Z,18.83
2023-03-01T14:03:55.952Z,17.30
2023-03-01T14:09:06.585Z,22.35
2023-03-01T14:14:33.142Z,20.02
2023-03-01T14:19:34.074Z,19.23
2023-03-01T14:24:45.607Z,16.23
2023-03-01T14:29:59.289Z,17.13
2023-03-01T14:34:58.288Z,18.13
2023-03-01T14:39:56.751Z,19.33
2023-03-01T14:44:56.730Z,19.13
2023-03-01T14:49:58.557Z,24.33
2023-03-01T14:54:57.262Z,22.65
2023-03-01T14:59:56.343Z,21.23
2023-03-01T15:04:57.339Z,21.38
2023-03-01T15:09:56.564Z,21.27
2023-03-01T15:15:04.184Z,18.85
2023-03-01T15:20:04.476Z,21.48
2023-03-01T15:25:01.302Z,21.15
2023-03-01T15:30:06.342Z,19.05
2023-03-01T15:35:41.402Z,21.17
2023-03-01T15:40:50.976Z,19.77
2023-03-01T15:46:05.140Z,19.60
2023-03-01T15:51:02.214Z,18.05
2023-03-01T15:56:06.318Z,18.45
2023-03-01T16:01:05.771Z,19.02
2023-03-01T16:06:03.718Z,19.33
2023-03-01T16:11:07.577Z,20.13
2023-03-01T16:16:06.330Z,21.63
2023-03-01T16:21:03.356Z,21.15
2023-03-01T16:26:03.645Z,21.25
2023-03-01T16:31:01.843Z,22.33
2023-03-01T16:36:00.631Z,21.15
2023-03-01T16:40:57.605Z,20.92
2023-03-01T16:45:54.812Z,20.35
2023-03-01T16:51:00.896Z,25.83
2023-03-01T16:55:59.128Z,27.23
2023-03-01T17:00:57.029Z,26.23
2023-03-01T17:05:54.730Z,25.92
2023-03-01T17:10:52.371Z,23.80
2023-03-01T17:15:49.209Z,23.88
2023-03-01T17:20:46.159Z,25.73
2023-03-01T17:25:44.683Z,30.73
2023-03-01T17:30:44.483Z,25.05
2023-03-01T17:35:41.488Z,29.10
2023-03-01T17:40:39.316Z,26.80
2023-03-01T17:45:40.921Z,24.35
2023-03-01T17:50:39.796Z,29.27
2023-03-01T17:55:40.262Z,28.08
2023-03-01T18:00:37.340Z,25.20
2023-03-01T18:05:35.835Z,27.63
2023-03-01T18:10:35.870Z,25.63
2023-03-01T18:15:33.186Z,23.83
2023-03-01T18:20:30.272Z,28.02
2023-03-01T18:25:27.201Z,25.77
2023-03-01T18:30:24.916Z,25.42
2023-03-01T18:35:22.577Z,25.73
2023-03-01T18:40:19.675Z,26.05
2023-03-01T18:45:18.771Z,24.40
2023-03-01T18:50:16.756Z,26.42
2023-03-01T18:55:14.035Z,20.13
2023-03-01T19:00:12.139Z,25.00
2023-03-01T19:05:09.525Z,28.75
2023-03-01T19:10:08.722Z,28.30
2023-03-01T19:15:06.922Z,27.83
2023-03-01T19:20:04.852Z,28.90
2023-03-01T19:25:01.875Z,24.70
2023-03-01T19:29:59.882Z,26.48
2023-03-01T19:34:58.283Z,25.60
2023-03-01T19:39:55.740Z,25.73
2023-03-01T19:44:52.761Z,21.65
2023-03-01T19:49:50.578Z,26.13
2023-03-01T19:54:48.035Z,28.73
2023-03-01T19:59:45.465Z,25.88
2023-03-01T20:04:42.376Z,27.27
2023-03-01T20:09:40.984Z,23.60
2023-03-01T20:14:38.803Z,29.42
2023-03-01T20:19:35.781Z,21.63
2023-03-01T20:24:32.813Z,26.50
2023-03-01T20:29:32.167Z,23.90
2023-03-01T20:34:28.993Z,28.77
2023-03-01T20:39:25.899Z,29.45
2023-03-01T20:44:23.322Z,25.02
2023-03-01T20:49:21.353Z,27.25
2023-03-01T20:54:18.204Z,21.40
2023-03-01T20:59:15.368Z,25.27
2023-03-01T21:04:13.047Z,26.33
2023-03-01T21:09:13.846Z,22.10
2023-03-01T21:14:11.859Z,25.55
2023-03-01T21:19:08.669Z,24.73
2023-03-01T21:24:09.465Z,20.42
2023-03-01T21:29:07.282Z,24.08
2023-03-01T21:34:06.199Z,21.42
2023-03-01T21:39:04.741Z,22.85
2023-03-01T21:44:06.149Z,21.77
2023-03-01T21:49:04.341Z,21.90
2023-03-01T21:54:01.234Z,24.58
2023-03-01T21:58:58.794Z,23.10
2023-03-01T22:03:56.713Z,19.23
2023-03-01T22:08:57.943Z,21.83
2023-03-01T22:13:56.345Z,19.92
2023-03-01T22:18:53.920Z,18.58
2023-03-01T22:23:54.126Z,18.63
2023-03-01T22:28:57.269Z,17.90
2023-03-01T22:33:56.191Z,20.95
2023-03-01T22:38:59.290Z,3.13
2023-03-01T22:44:02.828Z,1.52
2023-03-01T22:48:59.982Z,2.03
2023-03-01T22:53:57.901Z,1.40
2023-03-01T22:58:55.533Z,2.75
2023-03-01T23:03:53.827Z,2.67
2023-03-01T23:08:51.644Z,1.95
2023-03-01T23:13:49.576Z,3.38
2023-03-01T23:18:49.377Z,3.08
2023-03-01T23:23:50.501Z,1.90
2023-03-01T23:28:49.139Z,2.10
2023-03-01T23:33:47.394Z,3.00
2023-03-01T23:38:44.941Z,5.22
2023-03-01T23:43:45.276Z,3.00
2023-03-01T23:48:43.142Z,2.90
2023-03-01T23:53:54.232Z,2.22
2023-03-01T23:58:52.567Z,2.63
